Amesville, OH

11:22 AM EST on January 29, 2015 (GMT -0500)
OHDOT 31-Athens County Garage | Change Station
CLOSE
Current Station
Personal Weather Station
Location: Athens, OH
Elevation: 656 ft
Nearby Weather Stations

Elev 656 ft 39.33 °N, 82.13 °W | Updated 51 minutes ago

Overcast
Overcast
35 °F
Feels Like 35 °F
N
1
Wind Variable Wind from WNW
Gusts 4.0 mph

Today
High -- | Low -- °F
--% Chance of Precip.
Yesterday
High -- | Low -- °F
Precip. -- in
7:37 AM 5:44 PM
Waxing Gibbous, 75% visible
Pressure 29.92 in
Visibility 10.0 miles
Clouds Overcast 5000 ft
Windchill 35 °F
Dew Point 29 °F
Humidity 81%
Rainfall -999.00 in
Snow Depth Not available.
UV 1 out of 12
Pollen .10 out of 12
Air Quality Not available.
Flu Activity Not available.
METAR KUNI 291550Z AUTO 19005KT 10SM OVC050 01/M02 A2992 RMK AO2 P0002 T00071016

More Conditions Fewer Conditions

Pressure 29.92 in
Visibility 10.0 miles
Clouds Overcast 5000 ft
Windchill 35 °F
Dew Point 29 °F
Humidity 81%
Rainfall -999.00 in
Snow Depth Not available.
UV 1 out of 12
Pollen .10 out of 12
Air Quality Not available.
Flu Activity Not available.
METAR KUNI 291550Z AUTO 19005KT 10SM OVC050 01/M02 A2992 RMK AO2 P0002 T00071016

More Conditions Fewer Conditions

10-Day Weather Forecast

Almanac

Astronomy

Jan. 29, 2015 Rise Set
Actual Time
Civil Twilight
Nautical Twilight
Astronomical Twilight
Moon
Length of Visible Light
Length of Day
Tomorrow will be .
, % of the Moon is Illuminated

Today's Extremes

State Highs State Lows

Community

WunderPhotos

Upload Photos

1,791,466 photos uploaded!

WunderBlogs® & News

Nearby

Air Quality

  Air Quality AQ Index Pollutant
Not available.

Snow Depth

Station Depth Elevation

Earthquake Activity

City Distance Mag. Time & Date
Minimum magnitude displayed is 2.5.

Coastal Water Temperatures

Place Temperature

Nearby Weather Stations